createdAt,value
2022-08-05T00:00:53.605Z,9.02
2022-08-05T00:03:20.239Z,9.10
2022-08-05T00:06:04.601Z,10.32
2022-08-05T00:08:35.761Z,10.95
2022-08-05T00:11:23.859Z,10.40
2022-08-05T00:13:55.562Z,10.73
2022-08-05T00:16:35.953Z,12.55
2022-08-05T00:19:04.388Z,13.88
2022-08-05T00:21:31.022Z,13.02
2022-08-05T00:24:10.590Z,11.55
2022-08-05T00:26:37.534Z,11.93
2022-08-05T00:29:04.204Z,12.07
2022-08-05T00:31:53.962Z,13.27
2022-08-05T00:34:55.375Z,12.02
2022-08-05T00:37:12.759Z,14.05
2022-08-05T00:39:44.513Z,15.90
2022-08-05T00:42:35.319Z,14.80
2022-08-05T00:45:08.400Z,18.65
2022-08-05T00:47:56.624Z,18.10
2022-08-05T00:50:25.329Z,20.27
2022-08-05T00:52:53.468Z,20.67
2022-08-05T00:55:22.243Z,20.30
2022-08-05T00:57:58.531Z,16.25
2022-08-05T01:00:30.356Z,14.48
2022-08-05T01:03:01.101Z,14.50
2022-08-05T01:05:28.421Z,13.98
2022-08-05T01:08:30.647Z,18.02
2022-08-05T01:10:56.660Z,18.17
2022-08-05T01:13:59.011Z,15.18
2022-08-05T01:16:30.916Z,14.32
2022-08-05T01:19:36.548Z,18.15
2022-08-05T01:22:28.323Z,14.98
2022-08-05T01:25:13.639Z,16.13
2022-08-05T01:27:55.672Z,15.88
2022-08-05T01:30:34.685Z,21.27
2022-08-05T01:33:06.213Z,19.67
2022-08-05T01:35:50.956Z,16.17
2022-08-05T01:38:27.399Z,21.23
2022-08-05T01:40:59.702Z,24.50
2022-08-05T01:43:28.112Z,18.88
2022-08-05T01:45:56.613Z,22.40
2022-08-05T01:48:29.827Z,18.92
2022-08-05T01:51:00.111Z,19.58
2022-08-05T01:53:57.016Z,16.90
2022-08-05T01:58:11.342Z,18.58
2022-08-05T01:59:22.273Z,22.25
2022-08-05T02:01:51.835Z,19.63
2022-08-05T02:04:23.817Z,15.02
2022-08-05T02:06:52.816Z,18.02
2022-08-05T02:09:20.598Z,16.27
2022-08-05T02:12:15.291Z,13.93
2022-08-05T02:18:27.548Z,15.00
2022-08-05T02:20:20.803Z,17.48
2022-08-05T02:22:56.434Z,16.95
2022-08-05T02:25:26.687Z,15.38
2022-08-05T02:28:01.329Z,14.98
2022-08-05T02:30:36.954Z,13.85
2022-08-05T02:33:06.691Z,14.20
2022-08-05T02:35:37.624Z,13.73
2022-08-05T02:38:09.547Z,13.85
2022-08-05T02:40:40.936Z,13.98
2022-08-05T02:43:08.929Z,15.70
2022-08-05T02:45:52.081Z,15.60
2022-08-05T02:48:29.053Z,16.67
2022-08-05T02:50:59.319Z,14.13
2022-08-05T02:53:26.571Z,15.68
2022-08-05T02:56:00.286Z,16.30
2022-08-05T02:58:30.200Z,13.80
2022-08-05T03:01:00.782Z,14.80
2022-08-05T03:03:33.649Z,18.13
2022-08-05T03:06:55.043Z,16.15
2022-08-05T03:08:52.132Z,17.23
2022-08-05T03:11:54.545Z,18.23
2022-08-05T03:14:13.647Z,16.80
2022-08-05T03:16:40.702Z,18.15
2022-08-05T03:19:12.972Z,19.35
2022-08-05T03:21:49.661Z,19.83
2022-08-05T03:24:30.244Z,22.67
2022-08-05T03:26:59.003Z,21.30
2022-08-05T03:29:45.165Z,25.17
2022-08-05T03:32:19.634Z,26.95
2022-08-05T03:34:51.145Z,29.20
2022-08-05T03:37:19.204Z,30.88
2022-08-05T03:39:59.433Z,32.42
2022-08-05T03:42:29.121Z,28.58
2022-08-05T03:44:58.619Z,29.88
2022-08-05T03:47:25.527Z,27.20
2022-08-05T03:49:57.431Z,27.38
2022-08-05T03:52:36.508Z,27.98
2022-08-05T03:56:01.099Z,30.58
2022-08-05T03:58:16.424Z,26.85
2022-08-05T04:00:51.326Z,27.85
2022-08-05T04:03:28.332Z,25.85
2022-08-05T04:05:57.770Z,28.45
2022-08-05T04:08:34.809Z,27.88
2022-08-05T04:11:05.200Z,24.70
2022-08-05T04:13:49.782Z,19.95
2022-08-05T04:16:24.332Z,19.95
2022-08-05T04:18:54.235Z,20.10
2022-08-05T04:22:09.623Z,21.20
2022-08-05T04:24:18.633Z,19.20
2022-08-05T04:26:46.790Z,20.52
2022-08-05T04:29:13.489Z,20.58
2022-08-05T04:31:41.138Z,20.48
2022-08-05T04:34:31.830Z,18.85
2022-08-05T04:36:56.424Z,19.58
2022-08-05T04:39:23.196Z,26.33
2022-08-05T04:41:51.062Z,24.08
2022-08-05T04:44:21.316Z,25.10
2022-08-05T04:46:57.016Z,26.13
2022-08-05T04:49:38.990Z,23.65
2022-08-05T04:52:12.158Z,25.98
2022-08-05T04:54:38.756Z,25.73
2022-08-05T04:57:05.507Z,27.13
2022-08-05T04:59:38.313Z,27.35
2022-08-05T05:02:41.724Z,27.70
2022-08-05T05:04:52.883Z,27.00
2022-08-05T05:07:29.695Z,33.28
2022-08-05T05:09:59.155Z,24.77
2022-08-05T05:12:29.282Z,39.13
2022-08-05T05:14:55.970Z,38.92
2022-08-05T05:17:24.659Z,39.70
2022-08-05T05:20:10.492Z,42.22
2022-08-05T05:22:40.766Z,30.92
2022-08-05T05:25:16.923Z,32.15
2022-08-05T05:27:48.776Z,33.75
2022-08-05T05:30:30.878Z,35.28
2022-08-05T05:33:03.776Z,28.90
2022-08-05T05:35:44.732Z,26.77
2022-08-05T05:38:13.841Z,27.20
2022-08-05T05:40:49.414Z,28.95
2022-08-05T05:43:27.983Z,27.05
2022-08-05T05:46:07.629Z,26.38
2022-08-05T05:48:41.889Z,29.33
2022-08-05T05:51:15.482Z,39.80
2022-08-05T05:53:54.479Z,50.58
2022-08-05T05:56:32.289Z,65.32
2022-08-05T05:59:06.785Z,55.63
2022-08-05T06:01:37.566Z,34.70
2022-08-05T06:04:14.484Z,32.92
2022-08-05T06:06:47.789Z,51.70
2022-08-05T06:09:17.680Z,35.65
2022-08-05T06:12:01.747Z,47.83
2022-08-05T06:14:30.854Z,42.30
2022-08-05T06:16:58.527Z,34.70
2022-08-05T06:19:35.281Z,34.88
2022-08-05T06:22:06.768Z,23.40
2022-08-05T06:24:34.857Z,21.92
2022-08-05T06:27:04.050Z,21.13
2022-08-05T06:29:49.239Z,21.77
2022-08-05T06:32:26.358Z,20.42
2022-08-05T06:34:58.598Z,23.42
2022-08-05T06:37:56.868Z,16.52
2022-08-05T06:40:18.332Z,16.52
2022-08-05T06:42:52.347Z,14.75
2022-08-05T06:45:45.096Z,16.80
2022-08-05T06:48:44.293Z,14.77
2022-08-05T06:50:54.303Z,14.07
2022-08-05T06:53:27.617Z,13.35
2022-08-05T06:55:55.559Z,14.52
2022-08-05T06:58:34.754Z,13.98
2022-08-05T07:01:05.655Z,11.82
2022-08-05T07:03:33.384Z,10.52
2022-08-05T07:06:06.234Z,10.98
2022-08-05T07:08:47.822Z,12.10
2022-08-05T07:11:21.995Z,11.27
2022-08-05T07:14:08.485Z,10.25
2022-08-05T07:18:00.620Z,8.68
2022-08-05T07:22:28.185Z,8.95
2022-08-05T07:25:23.487Z,9.30
2022-08-05T07:27:57.566Z,9.60
2022-08-05T07:30:32.549Z,9.70
2022-08-05T07:33:05.208Z,9.57
2022-08-05T07:36:03.736Z,9.35
2022-08-05T07:38:34.292Z,10.45
2022-08-05T07:42:09.499Z,10.98
2022-08-05T07:43:51.482Z,9.95
2022-08-05T07:46:20.757Z,9.95
2022-08-05T07:49:03.075Z,34.60
2022-08-05T07:51:52.838Z,10.73
2022-08-05T07:54:30.242Z,9.15
2022-08-05T07:57:01.414Z,8.68
2022-08-05T07:59:41.885Z,7.60
2022-08-05T08:02:15.958Z,7.03
2022-08-05T08:04:48.410Z,7.57
2022-08-05T08:07:22.280Z,7.88
2022-08-05T08:09:52.542Z,7.60
2022-08-05T08:12:35.549Z,7.55
2022-08-05T08:15:13.888Z,8.02
2022-08-05T08:17:50.651Z,7.95
2022-08-05T08:21:00.144Z,7.55
2022-08-05T08:23:59.984Z,7.72
2022-08-05T08:25:59.168Z,8.00
2022-08-05T08:28:35.549Z,7.80
2022-08-05T08:31:04.503Z,8.77
2022-08-05T08:33:37.751Z,7.60
2022-08-05T08:36:29.541Z,8.30
2022-08-05T08:38:59.920Z,8.32
2022-08-05T08:41:51.360Z,8.38
2022-08-05T08:45:19.016Z,8.50
2022-08-05T08:47:47.681Z,10.23
2022-08-05T08:50:22.627Z,9.13
2022-08-05T08:52:51.716Z,8.60
2022-08-05T08:55:32.074Z,8.75
2022-08-05T08:58:09.753Z,8.85
2022-08-05T09:00:36.884Z,9.93
2022-08-05T09:03:06.843Z,9.85
2022-08-05T09:05:38.248Z,14.90
2022-08-05T09:08:05.885Z,10.63
2022-08-05T09:10:36.408Z,9.77
2022-08-05T09:13:06.987Z,10.63
2022-08-05T09:15:36.861Z,11.23
2022-08-05T09:18:07.254Z,11.93
2022-08-05T09:20:37.656Z,14.30
2022-08-05T09:23:19.685Z,15.10
2022-08-05T09:26:02.880Z,14.38
2022-08-05T09:28:32.462Z,14.57
2022-08-05T09:31:43.490Z,15.68
2022-08-05T09:34:01.760Z,17.08
2022-08-05T09:36:54.473Z,17.83
2022-08-05T09:39:39.393Z,12.93
2022-08-05T09:42:17.506Z,17.98
2022-08-05T09:44:56.022Z,33.65
2022-08-05T09:47:36.478Z,23.15
2022-08-05T09:50:18.185Z,53.70
2022-08-05T09:53:01.332Z,13.55
2022-08-05T09:55:57.128Z,86.45
2022-08-05T09:58:22.698Z,65.80
2022-08-05T10:01:01.269Z,14.30
2022-08-05T10:03:56.564Z,16.15
2022-08-05T10:06:19.714Z,24.73
2022-08-05T10:08:53.986Z,18.42
2022-08-05T10:11:22.844Z,19.75
2022-08-05T10:13:49.782Z,21.00
2022-08-05T10:16:31.189Z,18.35
2022-08-05T10:18:59.845Z,19.08
2022-08-05T10:21:27.842Z,20.80
2022-08-05T10:24:06.259Z,20.98
2022-08-05T10:26:37.222Z,20.65
2022-08-05T10:29:20.350Z,21.33
2022-08-05T10:32:52.276Z,20.50
2022-08-05T10:34:40.867Z,18.15
2022-08-05T10:37:08.236Z,17.63
2022-08-05T10:40:03.889Z,16.80
2022-08-05T10:42:33.413Z,17.70
2022-08-05T10:45:02.225Z,22.10
2022-08-05T10:48:29.147Z,22.90
2022-08-05T10:51:00.277Z,24.35
2022-08-05T10:53:45.292Z,27.60
2022-08-05T10:56:21.205Z,23.42
2022-08-05T10:58:55.036Z,23.92
2022-08-05T11:02:04.531Z,23.13
2022-08-05T11:04:26.269Z,22.05
2022-08-05T11:07:04.436Z,21.15
2022-08-05T11:09:51.273Z,21.27
2022-08-05T11:12:37.433Z,17.80
2022-08-05T11:15:24.457Z,16.02
2022-08-05T11:18:14.189Z,14.70
2022-08-05T11:20:46.188Z,15.77
2022-08-05T11:24:05.470Z,16.67
2022-08-05T11:26:32.341Z,15.73
2022-08-05T11:29:12.699Z,17.00
2022-08-05T11:31:58.704Z,15.85
2022-08-05T11:34:39.355Z,13.98
2022-08-05T11:38:28.478Z,12.40
2022-08-05T11:40:00.788Z,12.38
2022-08-05T11:42:32.394Z,10.68
2022-08-05T11:45:06.035Z,12.00
2022-08-05T11:47:54.549Z,10.95
2022-08-05T11:50:22.009Z,13.27
2022-08-05T11:52:51.123Z,12.88
2022-08-05T11:55:19.867Z,13.23
2022-08-05T11:58:10.861Z,13.65
2022-08-05T12:00:37.727Z,13.45
2022-08-05T12:03:28.365Z,13.93
2022-08-05T12:06:05.846Z,14.90
2022-08-05T12:08:51.284Z,15.77
2022-08-05T12:11:23.032Z,19.20
2022-08-05T12:13:58.715Z,22.73
2022-08-05T12:16:38.404Z,29.65
2022-08-05T12:19:08.367Z,35.90
2022-08-05T12:21:42.063Z,36.45
2022-08-05T12:24:11.007Z,39.85
2022-08-05T12:26:52.767Z,32.80
2022-08-05T12:29:22.898Z,30.95
2022-08-05T12:31:55.300Z,29.45
2022-08-05T12:34:28.407Z,29.77
2022-08-05T12:36:57.278Z,29.08
2022-08-05T12:39:28.110Z,29.40
2022-08-05T12:42:01.032Z,30.02
2022-08-05T12:44:33.409Z,27.58
2022-08-05T12:47:01.835Z,29.60
2022-08-05T12:50:04.139Z,32.58
2022-08-05T12:52:41.715Z,34.15
2022-08-05T12:55:25.372Z,35.05
2022-08-05T12:58:48.881Z,33.03
2022-08-05T13:02:01.384Z,31.17
2022-08-05T13:03:32.270Z,34.22
2022-08-05T13:06:00.856Z,32.92
2022-08-05T13:08:32.383Z,36.08
2022-08-05T13:11:02.375Z,36.83
2022-08-05T13:14:06.171Z,29.08
2022-08-05T13:16:19.622Z,22.08
2022-08-05T13:18:55.249Z,16.10
2022-08-05T13:21:27.855Z,13.82
2022-08-05T13:23:55.656Z,14.00
2022-08-05T13:26:29.952Z,13.52
2022-08-05T13:28:57.090Z,11.10
2022-08-05T13:31:33.796Z,10.60
2022-08-05T13:34:23.364Z,9.35
2022-08-05T13:36:53.473Z,7.70
2022-08-05T13:39:24.573Z,7.93
2022-08-05T13:42:07.573Z,8.07
2022-08-05T13:44:45.502Z,5.93
2022-08-05T13:47:34.876Z,6.05
2022-08-05T13:50:04.397Z,5.10
2022-08-05T13:52:31.512Z,4.95
2022-08-05T13:55:07.709Z,3.83
2022-08-05T14:00:26.953Z,3.30
2022-08-05T14:02:54.118Z,3.15
2022-08-05T14:05:48.609Z,3.08
2022-08-05T14:08:20.000Z,2.85
2022-08-05T14:10:48.286Z,2.00
2022-08-05T14:13:15.475Z,2.45
2022-08-05T14:16:07.547Z,2.08
2022-08-05T14:18:29.008Z,1.70
2022-08-05T14:20:55.619Z,2.13
2022-08-05T14:23:24.551Z,1.50
2022-08-05T14:25:54.154Z,1.65
2022-08-05T14:28:26.458Z,1.65
2022-08-05T14:30:54.739Z,2.10
2022-08-05T14:33:22.787Z,1.52
2022-08-05T14:35:52.051Z,1.70
2022-08-05T14:38:32.385Z,1.60
2022-08-05T14:41:05.827Z,1.80
2022-08-05T14:43:58.953Z,1.53
2022-08-05T14:46:29.094Z,1.80
2022-08-05T14:48:59.465Z,1.75
2022-08-05T14:54:06.676Z,1.85
2022-08-05T14:56:46.746Z,2.22
2022-08-05T14:59:14.217Z,1.98
2022-08-05T15:01:47.859Z,1.77
2022-08-05T15:04:15.508Z,1.63
2022-08-05T15:06:42.099Z,1.90
2022-08-05T15:09:16.229Z,1.80
2022-08-05T15:12:03.977Z,2.33
2022-08-05T15:14:35.905Z,1.65
2022-08-05T15:17:09.912Z,1.65
2022-08-05T15:19:56.207Z,2.15
2022-08-05T15:22:27.328Z,2.50
2022-08-05T15:24:56.208Z,1.63
2022-08-05T15:27:25.445Z,1.88
2022-08-05T15:29:53.138Z,2.47
2022-08-05T15:32:28.697Z,1.63
2022-08-05T15:34:56.998Z,1.70
2022-08-05T15:38:33.440Z,1.73
2022-08-05T15:40:58.613Z,2.58
2022-08-05T15:43:09.120Z,2.28
2022-08-05T15:45:45.725Z,2.55
2022-08-05T15:48:14.009Z,2.00
2022-08-05T15:50:43.818Z,2.00
2022-08-05T15:53:12.753Z,2.47
2022-08-05T15:56:02.157Z,1.85
2022-08-05T15:58:28.598Z,2.00
2022-08-05T16:01:11.956Z,1.95
2022-08-05T16:03:43.516Z,1.83
2022-08-05T16:06:11.196Z,2.55
2022-08-05T16:08:38.432Z,2.30
2022-08-05T16:11:05.135Z,2.20
2022-08-05T16:13:34.960Z,2.17
2022-08-05T16:16:03.836Z,1.67
2022-08-05T16:18:33.028Z,2.35
2022-08-05T16:21:04.134Z,1.83
2022-08-05T16:23:53.133Z,2.47
2022-08-05T16:26:18.484Z,2.75
2022-08-05T16:28:46.934Z,2.05
2022-08-05T16:31:13.626Z,2.30
2022-08-05T16:33:42.080Z,1.88
2022-08-05T16:36:09.273Z,2.15
2022-08-05T16:38:35.912Z,2.22
2022-08-05T16:41:29.776Z,2.40
2022-08-05T16:43:49.298Z,1.75
2022-08-05T16:48:52.025Z,3.20
2022-08-05T16:51:19.503Z,3.10
2022-08-05T16:54:02.502Z,2.40
2022-08-05T16:56:33.988Z,2.70
2022-08-05T16:59:08.473Z,2.80
2022-08-05T17:01:53.228Z,2.70
2022-08-05T17:04:21.100Z,2.80
2022-08-05T17:06:53.230Z,2.70
2022-08-05T17:09:20.565Z,2.90
2022-08-05T17:11:48.623Z,2.47
2022-08-05T17:14:34.440Z,2.65
2022-08-05T17:17:04.342Z,2.90
2022-08-05T17:19:31.367Z,2.90
2022-08-05T17:21:58.563Z,3.20
2022-08-05T17:24:33.893Z,2.95
2022-08-05T17:27:05.101Z,3.50
2022-08-05T17:29:33.973Z,3.28
2022-08-05T17:32:08.503Z,3.03
2022-08-05T17:34:38.263Z,3.63
2022-08-05T17:37:37.715Z,3.20
2022-08-05T17:39:55.761Z,3.15
2022-08-05T17:42:27.018Z,3.03
2022-08-05T17:44:56.911Z,3.72
2022-08-05T17:47:23.773Z,3.13
2022-08-05T17:50:04.264Z,3.40
2022-08-05T17:52:52.718Z,3.55
2022-08-05T17:55:20.969Z,3.40
2022-08-05T17:57:48.681Z,3.25
2022-08-05T18:00:17.393Z,3.63
2022-08-05T18:02:46.810Z,3.63
2022-08-05T18:05:13.758Z,3.42
2022-08-05T18:07:44.620Z,3.67
2022-08-05T18:10:20.302Z,3.83
2022-08-05T18:12:48.769Z,3.90
2022-08-05T18:15:15.582Z,3.63
2022-08-05T18:18:00.902Z,3.50
2022-08-05T18:20:31.582Z,3.28
2022-08-05T18:23:00.464Z,3.75
2022-08-05T18:25:36.903Z,4.03
2022-08-05T18:28:06.532Z,4.20
2022-08-05T18:30:34.052Z,3.20
2022-08-05T18:33:01.628Z,3.85
2022-08-05T18:35:49.649Z,3.72
2022-08-05T18:38:19.405Z,3.92
2022-08-05T18:41:55.541Z,4.10
2022-08-05T18:43:42.993Z,3.65
2022-08-05T18:46:20.149Z,3.70
2022-08-05T18:48:52.287Z,2.92
2022-08-05T18:52:04.278Z,3.10
2022-08-05T18:54:31.462Z,3.30
2022-08-05T18:57:02.043Z,3.67
2022-08-05T18:59:44.200Z,2.85
2022-08-05T19:02:27.828Z,3.22
2022-08-05T19:05:02.769Z,2.85
2022-08-05T19:07:46.402Z,3.05
2022-08-05T19:10:14.881Z,2.72
2022-08-05T19:12:43.216Z,2.80
2022-08-05T19:15:56.743Z,2.63
2022-08-05T19:18:08.562Z,2.20
2022-08-05T19:20:41.384Z,2.40
2022-08-05T19:23:22.764Z,1.92
2022-08-05T19:26:02.531Z,2.13
2022-08-05T19:28:33.759Z,2.10
2022-08-05T19:31:01.224Z,1.92
2022-08-05T19:33:35.514Z,1.83
2022-08-05T19:36:06.776Z,2.08
2022-08-05T19:38:36.883Z,1.50
2022-08-05T19:41:07.029Z,1.73
2022-08-05T19:44:04.084Z,1.75
2022-08-05T19:46:30.416Z,2.00
2022-08-05T19:49:03.174Z,2.08
2022-08-05T19:52:09.143Z,1.83
2022-08-05T19:54:31.437Z,2.28
2022-08-05T19:59:55.751Z,2.42
2022-08-05T20:02:17.422Z,2.00
2022-08-05T20:04:46.158Z,2.13
2022-08-05T20:07:15.676Z,2.40
2022-08-05T20:10:11.497Z,2.22
2022-08-05T20:12:40.292Z,2.22
2022-08-05T20:15:48.177Z,2.50
2022-08-05T20:18:09.631Z,2.45
2022-08-05T20:20:37.916Z,2.15
2022-08-05T20:23:05.493Z,2.20
2022-08-05T20:25:39.995Z,2.63
2022-08-05T20:28:13.585Z,2.20
2022-08-05T20:30:40.521Z,2.55
2022-08-05T20:33:08.799Z,2.28
2022-08-05T20:35:40.576Z,2.28
2022-08-05T20:38:12.017Z,2.17
2022-08-05T20:40:47.726Z,1.88
2022-08-05T20:43:17.773Z,2.35
2022-08-05T20:46:06.773Z,2.22
2022-08-05T20:48:37.057Z,2.00
2022-08-05T20:51:08.311Z,2.88
2022-08-05T20:53:36.222Z,2.22
2022-08-05T20:56:08.439Z,2.13
2022-08-05T20:58:36.075Z,2.33
2022-08-05T21:01:04.210Z,2.22
2022-08-05T21:03:34.325Z,2.05
2022-08-05T21:06:01.753Z,2.50
2022-08-05T21:08:41.585Z,1.90
2022-08-05T21:11:15.081Z,1.98
2022-08-05T21:13:56.460Z,2.10
2022-08-05T21:16:29.861Z,2.15
2022-08-05T21:19:00.534Z,2.05
2022-08-05T21:21:39.240Z,2.15
2022-08-05T21:24:12.688Z,1.80
2022-08-05T21:26:41.426Z,2.63
2022-08-05T21:29:12.549Z,1.73
2022-08-05T21:31:43.486Z,2.00
2022-08-05T21:34:11.379Z,2.10
2022-08-05T21:36:38.782Z,1.98
2022-08-05T21:39:09.645Z,1.65
2022-08-05T21:41:41.148Z,1.75
2022-08-05T21:44:07.770Z,2.05
2022-08-05T21:46:37.780Z,2.17
2022-08-05T21:49:10.887Z,2.05
2022-08-05T21:52:22.826Z,2.00
2022-08-05T21:54:41.476Z,1.75
2022-08-05T21:57:31.435Z,2.30
2022-08-05T22:00:05.356Z,2.20
2022-08-05T22:02:41.618Z,2.15
2022-08-05T22:05:10.014Z,2.40
2022-08-05T22:07:54.584Z,2.10
2022-08-05T22:10:25.598Z,2.38
2022-08-05T22:12:55.268Z,2.85
2022-08-05T22:16:02.035Z,3.08
2022-08-05T22:18:11.602Z,2.60
2022-08-05T22:20:38.993Z,3.15
2022-08-05T22:23:25.266Z,2.45
2022-08-05T22:26:30.779Z,2.58
2022-08-05T22:28:57.420Z,2.50
2022-08-05T22:31:24.812Z,2.55
2022-08-05T22:34:01.514Z,2.50
2022-08-05T22:36:29.184Z,2.45
2022-08-05T22:38:56.283Z,2.80
2022-08-05T22:42:05.429Z,2.78
2022-08-05T22:44:12.061Z,2.65
2022-08-05T22:46:40.707Z,2.90
2022-08-05T22:49:23.030Z,3.30
2022-08-05T22:52:05.734Z,2.95
2022-08-05T22:54:37.677Z,2.80
2022-08-05T22:57:06.454Z,2.97
2022-08-05T22:59:43.985Z,3.08
2022-08-05T23:02:16.946Z,2.88
2022-08-05T23:04:51.279Z,2.95
2022-08-05T23:07:19.331Z,2.80
2022-08-05T23:09:58.230Z,2.58
2022-08-05T23:12:32.366Z,3.33
2022-08-05T23:15:03.492Z,3.53
2022-08-05T23:17:34.315Z,3.10
2022-08-05T23:22:37.323Z,4.03
2022-08-05T23:25:04.574Z,3.55
2022-08-05T23:27:42.368Z,3.60
2022-08-05T23:30:21.326Z,3.40
2022-08-05T23:32:53.965Z,3.30
2022-08-05T23:35:20.685Z,4.20
2022-08-05T23:37:48.177Z,3.53
2022-08-05T23:40:14.997Z,3.30
2022-08-05T23:42:41.719Z,3.92
2022-08-05T23:45:15.650Z,3.72
2022-08-05T23:47:48.306Z,3.55
2022-08-05T23:50:15.075Z,3.42
2022-08-05T23:52:49.674Z,3.13
2022-08-05T23:55:17.969Z,3.08
2022-08-05T23:57:44.565Z,3.25
